createdAt,value
2023-11-24T01:01:54.708Z,1.64
2023-11-24T05:38:52.027Z,1.20
2023-11-24T05:42:21.593Z,1.42
2023-11-24T06:31:42.307Z,0.36
2023-11-24T06:34:10.975Z,0.13
2023-11-24T06:36:38.580Z,0.48
2023-11-24T06:39:10.878Z,0.68
2023-11-24T06:41:38.731Z,0.95
2023-11-24T06:44:06.360Z,1.02
2023-11-24T06:46:39.586Z,1.01
2023-11-24T06:49:07.753Z,1.25
2023-11-24T06:55:43.431Z,1.10
2023-11-24T06:58:12.108Z,1.07
2023-11-24T07:01:08.155Z,1.30
2023-11-24T07:03:35.881Z,1.47
2023-11-24T07:06:06.329Z,1.56
2023-11-24T07:08:36.676Z,1.29
2023-11-24T07:11:05.692Z,1.48
2023-11-24T07:13:33.081Z,1.97
2023-11-24T07:16:00.633Z,1.77
2023-11-24T07:18:28.066Z,1.64
2023-11-24T07:20:55.843Z,1.66
2023-11-24T07:23:23.243Z,1.52
2023-11-24T07:25:53.105Z,1.72
2023-11-24T07:28:20.554Z,1.88
2023-11-24T07:30:48.099Z,1.96
2023-11-24T07:33:15.948Z,1.85
2023-11-24T07:35:44.489Z,2.00
2023-11-24T07:38:11.867Z,2.13
2023-11-24T07:40:40.738Z,2.17
2023-11-24T07:43:10.464Z,2.23
2023-11-24T07:45:38.059Z,2.35
2023-11-24T19:56:29.808Z,3.24
2023-11-24T19:58:59.986Z,2.98
2023-11-24T20:01:31.622Z,2.99
2023-11-24T20:03:59.361Z,3.04
2023-11-24T20:06:31.060Z,2.94
2023-11-24T20:08:59.918Z,3.16
2023-11-24T20:15:18.800Z,3.44
2023-11-24T20:52:54.278Z,2.69
2023-11-24T21:00:38.478Z,2.55
2023-11-24T21:01:15.598Z,2.00
2023-11-24T21:03:48.363Z,2.10
2023-11-24T21:06:27.726Z,1.96
2023-11-24T21:09:01.704Z,1.85
2023-11-24T21:26:01.535Z,2.14
2023-11-24T21:43:25.636Z,2.36
2023-11-24T21:45:52.433Z,1.79
2023-11-24T21:48:30.616Z,1.77
2023-11-24T21:51:32.811Z,1.88
2023-11-24T21:54:56.515Z,1.82
2023-11-24T21:58:06.496Z,1.68
2023-11-24T22:00:51.600Z,1.53
2023-11-24T22:03:43.986Z,1.43
2023-11-24T22:06:31.937Z,1.56
2023-11-24T22:09:55.210Z,1.68
2023-11-24T22:13:04.744Z,1.68
2023-11-24T22:16:35.068Z,1.81
2023-11-24T22:19:08.783Z,1.71
2023-11-24T22:21:47.392Z,1.87
2023-11-24T22:24:58.019Z,2.03
2023-11-24T22:27:26.365Z,2.19
2023-11-24T22:30:04.312Z,2.20
2023-11-24T22:32:48.722Z,2.12
2023-11-24T22:36:04.814Z,2.13
2023-11-24T22:39:31.925Z,2.20
2023-11-24T22:42:32.370Z,2.19
2023-11-24T23:45:06.499Z,2.54
2023-11-24T23:46:36.005Z,2.72
2023-11-24T23:46:49.588Z,2.83
2023-11-24T23:52:36.777Z,2.50
2023-11-24T23:55:09.632Z,2.43
2023-11-24T23:57:38.794Z,2.69
